• Join FlightAware (Why Join?)
  • Login
  • US Flag 
12:14PM EDT


 

Airport Tracker/Info


-or-


 

Live Flight TrackerFlight Track Log ✈ DAL6246 ✈ 15-Jan-2014 ✈ KLGA - KBUF

Flight Track Log - Related Links

Times and Time Zones

All times are in EST time to prevent confusion due to time zone crossing. See the DAL6246 flight status page for this flight to view local times or setup timezone preferences in your user account.

Time Position Orientation Groundspeed Altitude Reporting Facility
EST Latitude Longitude Course Direction KTS MPH feet Rate Location/Type
09:58AM 40.7667 -73.7833 310° West 210 242 3,400  Level New York TRACON
09:59AM 40.8167 -73.7500 27° Northeast 260 299 6,300 3,000 Climbing New York TRACON
10:00AM 40.8833 -73.8000 330° Northwest 271 312 9,500 2,820 Climbing New York TRACON
10:03AM 40.9756 -74.0114 300° West 328 377 15,000 2,100 Climbing New York Center
10:04AM 41.0739 -74.4943 310° West  Level Estimated
10:04AM 41.0225 -74.1208 300° West 338 389 16,000  Level New York Center
10:05AM 41.0733 -74.2308 302° West 351 404 16,000  Level New York Center
10:06AM 41.1161 -74.3319 299° West 351 404 16,000  Level New York Center
10:07AM 41.1708 -74.4508 301° West 345 397 16,100 720 Climbing New York Center
10:08AM 41.2217 -74.5583 302° West 356 410 17,500 1,560 Climbing New York Center
10:09AM 41.2886 -74.6753 307° West 389 448 19,300 1,800 Climbing New York Center
10:10AM 41.3597 -74.7956 308° West 400 460 21,200 1,920 Climbing New York Center
10:11AM 41.4350 -74.9078 312° West 405 466 23,200 1,980 Climbing New York Center
10:12AM 41.5078 -75.0231 310° West 411 473 25,200 1,380 Climbing New York Center
10:13AM 41.5736 -75.1606 303° West 411 473 26,000 360 Climbing New York Center
10:14AM 41.6144 -75.2964 292° West 400 460 26,000  Level New York Center
10:15AM 41.6528 -75.4294 291° West 393 452 26,000  Level New York Center
10:16AM 41.6911 -75.5653 291° West 393 452 26,000  Level New York Center
10:17AM 41.7314 -75.7044 291° West 398 458 26,000  Level New York Center
10:18AM 41.7711 -75.8464 291° West 403 464 26,000  Level New York Center
10:19AM 41.8108 -75.9858 291° West 403 464 26,000  Level New York Center
10:20AM 41.8503 -76.1283 290° West 403 464 26,000  Level New York Center
10:21AM 41.8878 -76.2678 290° West 403 464 26,000  Level New York Center
10:22AM 41.9256 -76.3964 292° West 403 464 26,000  Level New York Center
10:23AM 41.9625 -76.5389 289° West 408 470 26,000  Level New York Center
10:24AM 42.0294 -76.7808 291° West 396 456 26,000  Level Cleveland Center
10:25AM 42.0669 -76.9203 290° West 396 456 26,000  Level Cleveland Center
10:26AM 42.1053 -77.0567 291° West 391 450 26,000  Level Cleveland Center
10:27AM 42.1492 -77.1900 294° West 390 449 26,000  Level Cleveland Center
10:28AM 42.1936 -77.3242 294° West 391 450 26,000 -420 Level Cleveland Center
10:29AM 42.2464 -77.4853 294° West 390 449 25,200 -1,620 Descending Cleveland Center
10:30AM 42.2867 -77.6114 293° West 370 426 22,700 -2,460 Descending Cleveland Center
10:31AM 42.3281 -77.7417 293° West 372 428 20,200 -2,520 Descending Cleveland Center
10:32AM 42.3703 -77.8728 294° West 377 434 17,600 -2,460 Descending Cleveland Center
10:34AM 42.4114 -78.0000 294° West 371 427 15,200 -2,160 Descending Cleveland Center
10:35AM 42.4500 -78.1211 293° West 356 410 13,200 -1,740 Descending Cleveland Center
10:36AM 42.4853 -78.2300 294° West 322 371 11,700 -1,380 Descending Cleveland Center
10:37AM 42.5147 -78.3228 293° West 277 319 10,400 -1,500 Descending Cleveland Center
10:38AM 42.5572 -78.3936 309° West 285 328 8,700 -1,980 Descending Cleveland Center
10:39AM 42.6456 -78.4361 341° North 284 327 6,400 -1,320 Descending Cleveland Center
10:40AM 42.7175 -78.4783 337° Northwest 279 321 6,000 -1,080 Descending Cleveland Center
10:41AM 42.7858 -78.5108 341° North 272 313 4,300 -1,260 Descending Cleveland Center
10:42AM 42.8597 -78.5347 347° North 263 303 3,500 -840 Descending Cleveland Center
10:43AM 42.9169 -78.5528 347° North 229 264 2,600 -540 Descending Cleveland Center
10:44AM 42.9658 -78.5658 349° North 205 236 2,400 -180 Descending Cleveland Center
10:45AM 43.0133 -78.5886 341° North 189 217 2,300  Descending Cleveland Center
10:46AM 43.0167 -78.6333 276° West 108 124 2,400 -180 Climbing Buffalo TRACON
10:47AM 43.0000 -78.6667 236° Southwest 109 125 2,000 -480 Descending Buffalo TRACON
10:48AM 42.9667 -78.6833 200° South 105 121 1,500 -600 Descending Buffalo TRACON
10:49AM 42.9500 -78.7167 236° Southwest 111 128 800 -720 Descending Buffalo TRACON